Time;durP1;ratioP1;P1;durP2;ratioP2;P2;SDS_P1;SDS_P2;PMS_P1;PMS_P2;Temp;Humidity;BMP_temperature;BMP_pressure;BME280_temperature;BME280_humidity;BME280_pressure;Samples;Min_cycle;Max_cycle;Signal;HPM_P1;HPM_P2
2021/12/20 00:02:10;;;;;;;15.10;3.60;;;5.70;99.90;;;;;;4808499;29;20110;-89
2021/12/20 00:04:36;;;;;;;10.60;2.33;;;5.70;99.90;;;;;;4823374;29;20589;-89
2021/12/20 00:07:01;;;;;;;8.18;2.60;;;5.70;99.90;;;;;;4823767;29;20398;-89
2021/12/20 00:09:27;;;;;;;12.43;3.30;;;5.70;99.90;;;;;;4823880;29;20046;-89
2021/12/20 00:11:53;;;;;;;14.13;3.60;;;5.60;99.90;;;;;;4823956;29;20062;-89
2021/12/20 00:14:19;;;;;;;7.57;2.40;;;5.70;99.90;;;;;;4808224;29;20143;-89
2021/12/20 00:16:47;;;;;;;15.37;3.37;;;5.70;99.90;;;;;;4808412;29;20085;-89
2021/12/20 00:19:13;;;;;;;12.13;3.03;;;5.80;99.90;;;;;;4823488;29;20053;-90
2021/12/20 00:21:38;;;;;;;13.47;3.43;;;5.70;99.90;;;;;;4823434;29;20042;-89
2021/12/20 00:24:04;;;;;;;14.97;3.57;;;5.60;99.90;;;;;;4808321;29;20050;-89
2021/12/20 00:26:30;;;;;;;13.88;3.60;;;5.60;99.90;;;;;;4807950;29;20065;-89
2021/12/20 00:28:56;;;;;;;12.23;2.93;;;5.60;99.90;;;;;;4823362;29;20046;-89
2021/12/20 00:31:21;;;;;;;8.37;3.50;;;5.60;99.90;;;;;;4823162;29;20482;-90
2021/12/20 00:33:48;;;;;;;11.77;4.43;;;5.60;99.90;;;;;;4808260;29;20107;-89
2021/12/20 00:36:21;;;;;;;14.77;3.30;;;6.30;99.90;;;;;;4807363;29;20062;-90
2021/12/20 00:41:32;;;;;;;13.95;3.85;;;5.60;99.90;;;;;;4825180;29;20094;-89
2021/12/20 00:43:59;;;;;;;11.13;3.60;;;5.60;99.90;;;;;;4808118;29;20088;-90
2021/12/20 00:46:25;;;;;;;7.85;3.10;;;5.60;99.90;;;;;;4807538;29;20047;-90
2021/12/20 00:48:51;;;;;;;9.27;3.08;;;5.60;99.90;;;;;;4822944;29;20405;-89
2021/12/20 00:51:17;;;;;;;14.73;3.17;;;5.60;99.90;;;;;;4823122;29;20054;-93
2021/12/20 00:53:43;;;;;;;13.77;2.83;;;5.60;99.90;;;;;;4822573;29;20094;-89
2021/12/20 00:56:08;;;;;;;12.53;3.17;;;5.60;99.90;;;;;;4792633;29;20505;-89
2021/12/20 00:58:34;;;;;;;7.43;2.97;;;5.60;99.90;;;;;;4822870;29;20073;-89
2021/12/20 01:01:02;;;;;;;19.47;2.83;;;5.60;99.90;;;;;;4792608;29;20141;-89
2021/12/20 01:03:30;;;;;;;11.85;3.17;;;5.60;99.90;;;;;;4807909;29;20058;-89
2021/12/20 01:05:56;;;;;;;14.35;3.58;;;5.60;99.90;;;;;;4808020;29;20053;-89
2021/12/20 01:08:23;;;;;;;17.33;3.65;;;5.60;99.90;;;;;;4807481;29;20061;-89
2021/12/20 01:10:50;;;;;;;14.48;3.85;;;5.60;99.90;;;;;;4807690;29;20058;-89
2021/12/20 01:13:20;;;;;;;8.48;3.33;;;5.50;99.90;;;;;;4807783;29;20047;-89
2021/12/20 01:15:49;;;;;;;6.78;2.75;;;5.50;99.90;;;;;;4808091;29;20122;-90
2021/12/20 01:18:16;;;;;;;12.07;3.28;;;5.50;99.90;;;;;;4807976;29;20456;-89
2021/12/20 01:20:42;;;;;;;;;;;5.50;99.90;;;;;;4822961;29;20054;-89
2021/12/20 01:23:09;;;;;;;11.15;3.42;;;5.50;99.90;;;;;;4807581;29;20295;-89
2021/12/20 01:25:35;;;;;;;16.05;3.28;;;6.30;99.90;;;;;;4807051;29;20073;-89
2021/12/20 01:28:02;;;;;;;10.37;3.33;;;5.50;99.90;;;;;;4822435;29;20051;-89
2021/12/20 01:30:28;;;;;;;6.40;2.65;;;5.40;99.90;;;;;;4822148;29;20295;-89
2021/12/20 01:32:54;;;;;;;8.93;3.60;;;5.40;99.90;;;;;;4807001;29;20061;-89
2021/12/20 01:35:23;;;;;;;8.98;2.47;;;5.30;99.90;;;;;;4821923;29;20523;-89
2021/12/20 01:37:50;;;;;;;17.40;3.83;;;5.90;99.90;;;;;;4806705;29;20057;-91
2021/12/20 01:40:16;;;;;;;9.70;3.00;;;5.50;99.90;;;;;;4807265;29;20133;-89
2021/12/20 01:42:43;;;;;;;9.68;3.17;;;5.50;99.90;;;;;;4807071;29;20534;-89
2021/12/20 01:45:14;;;;;;;;;;;5.20;99.90;;;;;;4822749;29;20091;-89
2021/12/20 01:47:43;;;;;;;11.77;2.70;;;5.20;99.90;;;;;;4810215;29;19931;-89
2021/12/20 01:50:28;;;;;;;10.57;2.40;;;5.20;99.90;;;;;;4825519;29;20142;-89
2021/12/20 01:52:53;;;;;;;17.80;3.75;;;5.30;99.90;;;;;;4810548;29;20058;-89
2021/12/20 01:55:21;;;;;;;12.70;3.37;;;5.20;99.90;;;;;;4810038;29;20123;-91
2021/12/20 01:57:48;;;;;;;11.05;2.75;;;5.10;99.90;;;;;;4824854;29;20082;-89
2021/12/20 02:00:20;;;;;;;13.73;3.22;;;5.10;99.90;;;;;;4825458;29;20053;-89
2021/12/20 02:02:46;;;;;;;12.70;3.25;;;5.60;99.90;;;;;;4825168;29;20050;-89
2021/12/20 02:05:20;;;;;;;9.77;2.97;;;5.10;99.90;;;;;;4825292;29;20402;-89
2021/12/20 02:07:52;;;;;;;6.50;2.13;;;5.10;99.90;;;;;;4811562;29;20410;-89
2021/12/20 02:10:19;;;;;;;13.50;2.65;;;6.00;99.90;;;;;;4840956;29;20487;-90
2021/12/20 02:12:46;;;;;;;13.65;3.10;;;5.40;99.90;;;;;;4824575;29;20050;-89
2021/12/20 02:15:11;;;;;;;9.10;3.08;;;5.00;99.90;;;;;;4825540;29;20047;-89
2021/12/20 02:17:39;;;;;;;8.90;2.90;;;4.90;99.90;;;;;;4825025;29;20057;-89
2021/12/20 02:20:05;;;;;;;5.80;2.15;;;4.90;99.90;;;;;;4810308;29;20115;-89
2021/12/20 02:22:31;;;;;;;9.55;2.15;;;4.90;99.90;;;;;;4825204;29;20498;-94
2021/12/20 02:24:57;;;;;;;7.50;2.60;;;4.90;99.90;;;;;;4809958;29;20093;-89
2021/12/20 02:27:23;;;;;;;12.17;4.17;;;4.80;99.90;;;;;;4810151;29;20108;-89
2021/12/20 02:36:58;;;;;;;11.73;2.20;;;4.80;99.90;;;;;;4840383;29;20478;-88
2021/12/20 02:38:39;;;;;;;10.45;2.33;;;4.80;99.90;;;;;;4814722;29;20097;-91
2021/12/20 02:41:29;;;;;;;8.05;2.08;;;5.30;99.90;;;;;;4809817;29;20064;-89
2021/12/20 02:44:00;;;;;;;8.55;1.67;;;4.70;99.90;;;;;;4824560;29;20047;-89
2021/12/20 02:49:05;;;;;;;12.30;2.45;;;4.60;99.90;;;;;;4840142;29;20052;-89
2021/12/20 02:51:31;;;;;;;5.70;1.65;;;4.70;99.90;;;;;;4809754;29;20058;-89
2021/12/20 02:53:59;;;;;;;5.05;1.65;;;4.60;99.90;;;;;;4809318;29;20062;-89
2021/12/20 02:56:24;;;;;;;5.53;1.73;;;4.60;99.90;;;;;;4824427;29;20050;-89
2021/12/20 02:58:51;;;;;;;8.77;2.17;;;4.80;99.90;;;;;;4823179;29;20081;-89
2021/12/20 03:01:18;;;;;;;;;;;4.50;99.90;;;;;;4809759;29;20050;-88
2021/12/20 03:03:44;;;;;;;5.90;2.50;;;5.20;99.90;;;;;;4839485;29;20288;-89
2021/12/20 03:06:25;;;;;;;4.82;1.75;;;5.20;99.90;;;;;;4809303;29;20119;-89
2021/12/20 03:08:54;;;;;;;6.30;1.50;;;4.40;99.90;;;;;;4824224;29;20485;-89
2021/12/20 03:11:22;;;;;;;8.20;3.05;;;4.40;99.90;;;;;;4824333;29;20536;-89
2021/12/20 03:13:52;;;;;;;7.30;1.80;;;4.40;99.90;;;;;;4809225;29;20133;-89
2021/12/20 03:16:20;;;;;;;10.07;2.25;;;4.30;99.90;;;;;;4809366;29;20046;-89
2021/12/20 03:18:46;;;;;;;7.03;2.13;;;4.30;99.90;;;;;;4808892;29;20529;-89
2021/12/20 03:21:12;;;;;;;6.47;2.43;;;4.20;99.90;;;;;;4809085;29;20144;-89
2021/12/20 03:23:39;;;;;;;4.87;1.60;;;4.20;99.90;;;;;;4824374;29;20159;-91
2021/12/20 03:26:05;;;;;;;5.07;2.15;;;4.20;99.90;;;;;;4824241;29;20054;-90
2021/12/20 03:28:31;;;;;;;6.28;1.88;;;4.80;99.90;;;;;;4824353;29;20569;-90
2021/12/20 03:30:56;;;;;;;3.20;1.27;;;4.20;99.90;;;;;;4824014;29;20144;-89
2021/12/20 03:33:22;;;;;;;10.35;1.45;;;4.20;99.90;;;;;;4809256;29;20046;-89
2021/12/20 03:35:48;;;;;;;8.10;1.80;;;4.00;99.90;;;;;;4824143;29;20054;-89
2021/12/20 03:38:14;;;;;;;3.77;1.47;;;4.90;99.90;;;;;;4793877;29;20044;-90
2021/12/20 03:40:40;;;;;;;4.50;1.90;;;3.90;99.90;;;;;;4809031;29;20563;-89
2021/12/20 03:43:09;;;;;;;6.27;1.60;;;3.90;99.90;;;;;;4824196;29;20050;-91
2021/12/20 03:45:36;;;;;;;6.53;1.88;;;4.40;99.90;;;;;;4823983;29;20050;-90
2021/12/20 03:48:02;;;;;;;4.13;1.08;;;3.70;99.90;;;;;;4808570;29;20102;-90
2021/12/20 03:50:27;;;;;;;2.20;1.20;;;3.60;99.90;;;;;;4824059;29;20439;-90
2021/12/20 03:52:53;;;;;;;9.80;1.60;;;3.50;99.90;;;;;;4793672;29;20050;-90
2021/12/20 03:55:19;;;;;;;7.20;1.90;;;3.50;99.90;;;;;;4808324;29;20054;-89
2021/12/20 03:57:45;;;;;;;1.60;1.35;;;4.30;99.90;;;;;;4808381;29;20050;-93
2021/12/20 04:00:13;;;;;;;5.13;1.23;;;3.70;99.90;;;;;;4823741;29;20098;-91
2021/12/20 04:02:43;;;;;;;2.25;1.45;;;3.40;99.90;;;;;;4823622;29;20046;-90
2021/12/20 04:05:10;;;;;;;4.47;1.38;;;3.30;99.90;;;;;;4823289;29;20050;-89
2021/12/20 04:07:36;;;;;;;4.13;1.75;;;3.30;99.90;;;;;;4838819;29;20061;-90
2021/12/20 04:10:03;;;;;;;8.20;2.10;;;3.20;99.90;;;;;;4807640;29;20046;-89
2021/12/20 04:12:29;;;;;;;1.85;1.20;;;3.20;99.90;;;;;;4808364;29;20056;-89
2021/12/20 04:14:55;;;;;;;3.83;1.63;;;3.80;99.90;;;;;;4807893;29;20046;-89
2021/12/20 04:17:20;;;;;;;6.30;2.43;;;3.10;99.90;;;;;;4823574;29;20058;-89
2021/12/20 04:19:46;;;;;;;3.87;1.53;;;4.00;99.90;;;;;;4823575;29;20046;-92
2021/12/20 04:22:12;;;;;;;3.53;1.13;;;3.60;99.90;;;;;;4808293;29;20050;-90
2021/12/20 04:24:38;;;;;;;2.63;1.27;;;3.00;99.90;;;;;;4808395;29;20050;-89
2021/12/20 04:27:03;;;;;;;3.75;1.17;;;3.00;99.90;;;;;;4808191;29;20046;-90
2021/12/20 04:29:30;;;;;;;5.67;0.90;;;2.90;99.90;;;;;;4793291;29;20111;-91
2021/12/20 04:31:55;;;;;;;3.77;1.23;;;2.80;99.90;;;;;;4808059;29;20199;-89
2021/12/20 04:34:21;;;;;;;6.20;1.33;;;3.40;99.90;;;;;;4808157;29;20378;-90
2021/12/20 04:36:47;;;;;;;10.00;1.30;;;2.90;99.90;;;;;;4807694;29;20050;-90
2021/12/20 04:39:17;;;;;;;10.47;1.37;;;3.60;99.90;;;;;;4822743;29;20167;-90
2021/12/20 04:41:43;;;;;;;1.77;1.60;;;2.70;99.90;;;;;;4823122;29;20417;-89
2021/12/20 04:44:09;;;;;;;3.97;0.75;;;2.60;99.90;;;;;;4822501;29;20092;-92
2021/12/20 04:46:34;;;;;;;1.53;0.87;;;2.60;99.90;;;;;;4822823;29;20093;-89
2021/12/20 04:49:00;;;;;;;3.03;2.00;;;2.90;99.90;;;;;;4822754;29;20589;-90
2021/12/20 04:51:26;;;;;;;6.57;1.40;;;2.50;99.90;;;;;;4823161;29;20137;-89
2021/12/20 04:53:52;;;;;;;4.00;1.20;;;2.40;99.90;;;;;;4807624;29;20094;-91
2021/12/20 04:56:18;;;;;;;3.97;1.80;;;2.40;99.90;;;;;;4807508;29;20058;-90
2021/12/20 04:58:43;;;;;;;5.80;2.13;;;2.40;99.90;;;;;;4807918;29;20054;-89
2021/12/20 05:01:09;;;;;;;4.05;2.00;;;2.40;99.90;;;;;;4822672;29;20093;-89
2021/12/20 05:03:55;;;;;;;9.35;2.58;;;2.30;99.90;;;;;;4807961;29;20261;-90
2021/12/20 05:06:21;;;;;;;10.10;2.85;;;2.50;99.90;;;;;;4822547;29;20062;-89
2021/12/20 05:08:49;;;;;;;7.20;3.63;;;2.30;99.90;;;;;;4807889;29;20068;-90
2021/12/20 05:11:16;;;;;;;8.23;1.67;;;2.30;99.90;;;;;;4807472;29;20046;-89
2021/12/20 05:13:42;;;;;;;7.53;1.42;;;2.20;99.90;;;;;;4807791;29;20046;-89
2021/12/20 05:16:08;;;;;;;6.33;2.40;;;2.20;99.90;;;;;;4807268;29;20130;-90
2021/12/20 05:18:34;;;;;;;7.32;2.35;;;3.00;99.90;;;;;;4822786;29;20058;-89
2021/12/20 05:20:59;;;;;;;3.17;1.83;;;2.10;99.90;;;;;;4808186;29;20046;-90
2021/12/20 05:23:25;;;;;;;6.38;2.08;;;2.10;99.90;;;;;;4811436;29;20054;-89
2021/12/20 05:25:51;;;;;;;4.00;2.10;;;2.50;99.90;;;;;;4826005;29;20046;-89
2021/12/20 05:28:17;;;;;;;5.93;2.27;;;2.00;99.90;;;;;;4825921;29;20648;-89
2021/12/20 05:30:45;;;;;;;3.40;2.27;;;2.00;99.90;;;;;;4811242;29;20379;-89
2021/12/20 05:33:10;;;;;;;7.00;3.08;;;3.10;99.90;;;;;;4811294;29;20096;-89
2021/12/20 05:35:36;;;;;;;7.77;2.93;;;1.90;99.90;;;;;;4826142;29;20085;-90
2021/12/20 05:38:02;;;;;;;5.13;2.40;;;1.90;99.90;;;;;;4810685;29;20042;-89
2021/12/20 05:40:28;;;;;;;5.80;2.20;;;2.50;99.90;;;;;;4811182;29;20054;-89
2021/12/20 05:42:54;;;;;;;3.50;1.73;;;2.50;99.90;;;;;;4810965;29;20517;-89
2021/12/20 05:45:20;;;;;;;7.93;2.03;;;1.90;99.90;;;;;;4810695;29;20045;-89
2021/12/20 05:47:46;;;;;;;11.85;2.65;;;1.70;99.90;;;;;;4825914;29;20061;-89
2021/12/20 05:50:15;;;;;;;3.22;1.80;;;1.70;99.90;;;;;;4825654;29;20054;-89
2021/12/20 05:52:41;;;;;;;4.70;2.50;;;1.70;99.90;;;;;;4825548;29;20574;-89
2021/12/20 05:55:07;;;;;;;6.70;2.23;;;1.70;99.90;;;;;;4824851;29;20094;-91
2021/12/20 05:57:34;;;;;;;3.08;1.60;;;1.70;99.90;;;;;;4825298;29;20138;-90
2021/12/20 06:00:03;;;;;;;4.35;2.30;;;2.30;99.90;;;;;;4810677;29;20383;-89
2021/12/20 06:02:29;;;;;;;2.33;1.90;;;1.70;99.90;;;;;;4810598;29;20123;-89
2021/12/20 06:04:54;;;;;;;5.83;2.23;;;2.60;99.90;;;;;;4825430;29;20490;-90
2021/12/20 06:07:21;;;;;;;11.77;1.83;;;1.60;99.90;;;;;;4825368;29;20057;-90
2021/12/20 06:09:48;;;;;;;12.05;1.77;;;1.50;99.90;;;;;;4810544;29;20056;-91
2021/12/20 06:12:14;;;;;;;8.38;1.50;;;2.40;99.90;;;;;;4825243;29;20057;-90
2021/12/20 06:14:40;;;;;;;5.03;1.77;;;2.10;99.90;;;;;;4809978;29;20050;-89
2021/12/20 06:17:07;;;;;;;3.08;1.63;;;1.50;99.90;;;;;;4824936;29;20453;-90
2021/12/20 06:19:34;;;;;;;3.83;1.63;;;1.40;99.90;;;;;;4810408;29;20144;-89
2021/12/20 06:22:00;;;;;;;8.63;2.15;;;1.50;99.90;;;;;;4825320;29;20103;-90
2021/12/20 06:24:25;;;;;;;6.67;1.90;;;1.60;99.90;;;;;;4810118;29;20050;-89
2021/12/20 06:26:51;;;;;;;4.37;1.17;;;1.30;99.90;;;;;;4810135;29;20054;-89
2021/12/20 06:29:21;;;;;;;3.13;2.25;;;1.30;99.90;;;;;;4809684;29;20510;-90
2021/12/20 06:31:52;;;;;;;2.97;1.38;;;1.80;99.90;;;;;;4809844;29;20042;-89
2021/12/20 06:34:21;;;;;;;4.65;1.73;;;2.30;99.90;;;;;;4809726;29;20059;-89
2021/12/20 06:36:46;;;;;;;2.85;0.75;;;1.20;99.90;;;;;;4824910;29;20383;-89
2021/12/20 06:39:23;;;;;;;4.40;1.67;;;1.20;99.90;;;;;;4809913;29;20062;-88
2021/12/20 06:41:49;;;;;;;2.22;1.33;;;1.20;99.90;;;;;;4811056;29;20047;-89
2021/12/20 06:44:22;;;;;;;;;;;1.10;99.90;;;;;;4824939;29;20054;-89
2021/12/20 06:46:48;;;;;;;4.18;1.50;;;1.10;99.90;;;;;;4809875;29;19924;-91
2021/12/20 06:49:14;;;;;;;3.17;1.50;;;1.10;99.90;;;;;;4809296;29;20573;-90
2021/12/20 06:51:42;;;;;;;4.13;1.20;;;1.60;99.90;;;;;;4809886;29;20133;-89
2021/12/20 06:54:10;;;;;;;6.82;1.40;;;1.40;99.90;;;;;;4809616;29;20081;-92
2021/12/20 06:56:36;;;;;;;1.95;1.27;;;1.30;99.90;;;;;;4809529;29;20086;-89
2021/12/20 06:59:02;;;;;;;9.40;1.50;;;1.00;99.90;;;;;;4809606;29;20458;-89
2021/12/20 07:01:28;;;;;;;6.85;2.20;;;1.00;99.90;;;;;;4809146;29;20563;-89
2021/12/20 07:03:54;;;;;;;6.35;1.33;;;1.50;99.90;;;;;;4809546;29;20062;-89
2021/12/20 07:06:20;;;;;;;2.40;1.10;;;2.00;99.90;;;;;;4809397;29;20083;-89
2021/12/20 07:08:45;;;;;;;8.93;1.60;;;0.90;99.90;;;;;;4809064;29;20054;-90
2021/12/20 07:11:11;;;;;;;7.97;1.73;;;0.90;99.90;;;;;;4809608;29;20050;-93
2021/12/20 07:13:41;;;;;;;13.93;2.20;;;0.80;99.90;;;;;;4811044;29;20149;-87
2021/12/20 07:16:09;;;;;;;2.60;1.25;;;0.80;99.90;;;;;;4824314;29;20521;-88
2021/12/20 07:18:35;;;;;;;5.53;2.33;;;1.30;99.90;;;;;;4824093;29;20058;-88
2021/12/20 07:21:04;;;;;;;5.88;2.17;;;1.60;99.90;;;;;;4824263;29;20050;-88
2021/12/20 07:23:38;;;;;;;4.22;1.80;;;0.80;99.90;;;;;;4808797;29;20091;-88
2021/12/20 07:26:07;;;;;;;2.95;2.05;;;1.90;99.90;;;;;;4809549;29;20050;-90
2021/12/20 07:28:33;;;;;;;7.30;2.28;;;0.70;99.90;;;;;;4809380;29;20061;-92
2021/12/20 07:30:59;;;;;;;1.92;1.80;;;0.60;99.90;;;;;;4824702;29;20054;-95
2021/12/20 07:33:27;;;;;;;3.70;1.47;;;1.00;99.90;;;;;;4824962;29;20130;-93
2021/12/20 07:35:52;;;;;;;5.07;1.48;;;1.60;99.90;;;;;;4824800;29;20057;-87
2021/12/20 07:38:24;;;;;;;4.20;1.25;;;1.30;99.90;;;;;;4823165;29;20151;-89
2021/12/20 07:40:55;;;;;;;6.72;2.08;;;0.50;99.90;;;;;;4823697;29;20043;-90
2021/12/20 07:43:21;;;;;;;2.13;1.30;;;1.10;99.90;;;;;;4822887;29;20058;-89
2021/12/20 07:45:47;;;;;;;5.83;1.57;;;0.50;99.90;;;;;;4823622;29;20058;-89
2021/12/20 07:48:21;;;;;;;3.67;1.57;;;0.60;99.90;;;;;;4808464;29;20057;-88
2021/12/20 07:50:49;;;;;;;6.18;2.08;;;0.50;99.90;;;;;;4824107;29;20287;-86
2021/12/20 07:53:18;;;;;;;5.00;1.65;;;1.30;99.90;;;;;;4808762;29;20062;-90
2021/12/20 07:55:44;;;;;;;3.13;1.60;;;-0.50;99.90;;;;;;4808333;29;20058;-85
2021/12/20 07:58:09;;;;;;;5.33;1.70;;;0.50;99.90;;;;;;4823993;29;20133;-91
2021/12/20 08:00:38;;;;;;;2.30;1.80;;;1.20;99.90;;;;;;4808745;29;20141;-92
2021/12/20 08:03:14;;;;;;;;;;;;;;;;;;;;;
2021/12/20 08:05:52;;;;;;;2.20;1.60;;;0.50;99.90;;;;;;4814548;29;20082;-90
2021/12/20 08:08:20;;;;;;;4.38;1.38;;;0.50;99.90;;;;;;4823786;29;20137;-91
2021/12/20 08:10:46;;;;;;;2.30;1.65;;;1.00;99.90;;;;;;4808907;29;20603;-87
2021/12/20 08:13:13;;;;;;;3.57;1.33;;;0.70;99.90;;;;;;4808238;29;20137;-90
2021/12/20 08:15:39;;;;;;;5.97;1.08;;;0.40;99.90;;;;;;4823037;29;20513;-88
2021/12/20 08:18:06;;;;;;;7.50;2.40;;;1.00;99.90;;;;;;4823091;29;20087;-88
2021/12/20 08:20:34;;;;;;;2.05;1.25;;;2.50;99.90;;;;;;4808302;29;20462;-87
2021/12/20 08:23:01;;;;;;;6.93;1.70;;;1.50;99.90;;;;;;4810505;29;20100;-89
2021/12/20 08:25:27;;;;;;;6.82;1.85;;;1.60;99.90;;;;;;4823048;29;20134;-89
2021/12/20 08:27:56;;;;;;;6.07;1.23;;;1.50;99.90;;;;;;4808118;29;20073;-88
2021/12/20 08:30:22;;;;;;;4.00;1.27;;;1.50;99.90;;;;;;4822787;29;20441;-94
2021/12/20 08:32:48;;;;;;;8.23;1.23;;;2.20;99.90;;;;;;4823080;29;20093;-89
2021/12/20 08:35:17;;;;;;;4.70;1.95;;;2.50;99.90;;;;;;4807916;29;20417;-88
2021/12/20 08:37:44;;;;;;;17.88;1.90;;;1.80;99.90;;;;;;4792300;29;20046;-90
2021/12/20 08:40:14;;;;;;;4.95;1.38;;;2.00;99.90;;;;;;4823224;29;20050;-89
2021/12/20 08:42:42;;;;;;;9.88;1.92;;;2.40;99.90;;;;;;4822841;29;20521;-88
2021/12/20 08:45:09;;;;;;;6.78;1.90;;;3.90;99.90;;;;;;4825277;29;20062;-88
2021/12/20 08:47:37;;;;;;;9.52;2.50;;;3.10;99.90;;;;;;4807498;29;20054;-90
2021/12/20 08:50:15;;;;;;;19.50;2.67;;;3.30;99.90;;;;;;4823438;29;20501;-96
2021/12/20 08:52:41;;;;;;;5.82;2.67;;;3.40;99.90;;;;;;4824477;29;20058;-87
2021/12/20 08:55:08;;;;;;;8.87;2.90;;;4.40;99.90;;;;;;4822050;29;20050;-94
2021/12/20 08:57:34;;;;;;;7.07;2.88;;;3.80;99.90;;;;;;4807124;29;20054;-88
2021/12/20 09:00:04;;;;;;;5.50;2.70;;;4.70;99.90;;;;;;4822914;29;20085;-88
2021/12/20 09:16:35;;;;;;;14.73;2.65;;;6.00;99.90;;;;;;4768651;29;20534;-92
2021/12/20 09:19:02;;;;;;;10.73;3.20;;;6.20;99.90;;;;;;4822553;29;20050;-86
2021/12/20 09:21:28;;;;;;;7.97;2.65;;;6.20;99.90;;;;;;4807420;29;20061;-85
2021/12/20 09:23:55;;;;;;;3.53;3.23;;;6.20;99.90;;;;;;4822856;29;20046;-86
2021/12/20 09:26:21;;;;;;;3.90;2.38;;;6.40;99.90;;;;;;4825451;29;20061;-84
2021/12/20 09:28:47;;;;;;;8.77;3.10;;;6.20;99.90;;;;;;4822381;29;20406;-84
2021/12/20 09:31:13;;;;;;;10.00;3.13;;;6.10;99.90;;;;;;4806891;29;20050;-84
2021/12/20 09:33:39;;;;;;;6.70;2.83;;;6.20;99.90;;;;;;4822165;29;20050;-85
2021/12/20 09:36:06;;;;;;;8.07;3.07;;;6.10;99.90;;;;;;4822755;29;20050;-85
2021/12/20 09:38:32;;;;;;;6.43;3.15;;;6.10;99.90;;;;;;4822177;29;20061;-85
2021/12/20 09:41:15;;;;;;;8.77;3.80;;;6.70;99.90;;;;;;4823079;29;20050;-84
2021/12/20 09:43:44;;;;;;;10.55;3.00;;;6.00;99.90;;;;;;4806622;29;20087;-84
2021/12/20 09:46:10;;;;;;;8.20;3.03;;;6.10;99.90;;;;;;4807390;29;20111;-85
2021/12/20 09:48:36;;;;;;;13.93;3.83;;;6.20;99.90;;;;;;4809087;29;20050;-84
2021/12/20 09:51:04;;;;;;;15.10;3.47;;;6.40;99.90;;;;;;4823235;29;20058;-90
2021/12/20 09:53:30;;;;;;;9.63;2.75;;;6.50;99.90;;;;;;4807648;29;20141;-87
2021/12/20 09:55:58;;;;;;;14.77;2.93;;;6.70;99.90;;;;;;4810228;29;20140;-85
2021/12/20 09:58:25;;;;;;;10.27;3.30;;;6.80;99.90;;;;;;4810089;29;20049;-85
2021/12/20 10:00:52;;;;;;;7.95;2.85;;;6.90;99.90;;;;;;4825522;29;20050;-87
2021/12/20 10:03:24;;;;;;;8.70;2.55;;;7.00;99.90;;;;;;4825613;29;20073;-87
2021/12/20 10:05:55;;;;;;;4.95;3.22;;;7.10;99.90;;;;;;4825418;29;20065;-84
2021/12/20 10:08:30;;;;;;;11.05;2.90;;;7.10;99.90;;;;;;4828058;29;20390;-85
2021/12/20 10:10:57;;;;;;;10.90;2.60;;;7.10;99.90;;;;;;4814535;29;20462;-90
2021/12/20 10:13:26;;;;;;;12.70;2.95;;;7.80;99.90;;;;;;4828215;29;20397;-85
2021/12/20 10:15:53;;;;;;;9.40;2.88;;;7.20;99.90;;;;;;4813103;29;20099;-85
2021/12/20 10:18:19;;;;;;;6.30;3.08;;;7.50;99.90;;;;;;4843270;29;20088;-86
2021/12/20 10:20:54;;;;;;;6.80;3.07;;;7.50;99.90;;;;;;4813038;29;20085;-86
2021/12/20 10:23:29;;;;;;;8.25;3.90;;;8.30;99.90;;;;;;4828141;29;20639;-86
2021/12/20 10:26:10;;;;;;;4.63;2.95;;;7.60;99.90;;;;;;4812955;29;20138;-85
2021/12/20 10:28:37;;;;;;;11.25;2.85;;;7.80;99.90;;;;;;4813422;29;20058;-87
2021/12/20 10:31:05;;;;;;;12.43;3.30;;;8.60;99.90;;;;;;4813187;29;20054;-85
2021/12/20 10:33:32;;;;;;;8.32;2.53;;;8.30;99.90;;;;;;4827677;29;20054;-85
2021/12/20 10:36:00;;;;;;;10.55;2.50;;;8.60;99.90;;;;;;4827685;29;20050;-86
2021/12/20 10:38:38;;;;;;;6.75;2.80;;;9.20;99.90;;;;;;4827557;29;20495;-90
2021/12/20 10:41:32;;;;;;;6.70;2.53;;;8.80;99.90;;;;;;4812864;29;20129;-86
2021/12/20 10:44:01;;;;;;;4.82;2.15;;;9.80;99.90;;;;;;4827702;29;20398;-87
2021/12/20 10:46:32;;;;;;;7.20;2.60;;;10.00;99.90;;;;;;4813287;29;20046;-87
2021/12/20 10:49:05;;;;;;;5.07;2.22;;;10.30;99.90;;;;;;4827924;29;20057;-86
2021/12/20 10:51:37;;;;;;;8.95;2.55;;;10.50;99.90;;;;;;4828401;29;20053;-86
2021/12/20 10:54:09;;;;;;;6.22;1.55;;;10.60;99.90;;;;;;4826892;29;20054;-87
2021/12/20 10:56:48;;;;;;;5.65;1.67;;;11.00;99.90;;;;;;4827781;29;20054;-87
2021/12/20 10:59:13;;;;;;;3.83;1.60;;;11.30;99.90;;;;;;4813051;29;20089;-87
2021/12/20 11:04:21;;;;;;;8.18;1.55;;;12.00;99.90;;;;;;4842742;29;20054;-87
2021/12/20 11:09:33;;;;;;;4.07;1.65;;;12.40;99.90;;;;;;4842995;29;20113;-90
2021/12/20 11:12:03;;;;;;;4.05;2.25;;;12.50;99.90;;;;;;4843717;29;20387;-86
2021/12/20 11:14:38;;;;;;;2.88;1.63;;;12.70;99.90;;;;;;4827493;29;20634;-86
2021/12/20 11:17:06;;;;;;;2.58;1.17;;;12.70;99.90;;;;;;4842440;29;20501;-86
2021/12/20 11:19:40;;;;;;;2.38;1.17;;;12.80;99.90;;;;;;4826540;29;20090;-86
2021/12/20 11:22:19;;;;;;;4.90;1.45;;;13.00;99.90;;;;;;4827258;29;20520;-87
2021/12/20 11:24:56;;;;;;;5.50;1.27;;;13.30;99.90;;;;;;4827522;29;20076;-93
2021/12/20 11:27:25;;;;;;;4.15;1.10;;;13.60;99.90;;;;;;4827822;29;20125;-87
2021/12/20 11:29:54;;;;;;;1.40;1.05;;;13.70;97.10;;;;;;4827184;29;20054;-87
2021/12/20 11:32:22;;;;;;;2.42;1.70;;;13.90;99.90;;;;;;4811724;29;20144;-86
2021/12/20 11:34:48;;;;;;;2.35;0.90;;;14.10;99.90;;;;;;4842367;29;20087;-87
2021/12/20 11:37:17;;;;;;;1.70;0.93;;;14.30;99.90;;;;;;4812188;29;20050;-86
2021/12/20 11:39:45;;;;;;;1.58;1.30;;;14.40;99.90;;;;;;4842219;29;20057;-86
2021/12/20 11:42:21;;;;;;;1.45;1.13;;;14.40;99.90;;;;;;4811858;29;20053;-89
2021/12/20 11:44:49;;;;;;;4.53;1.10;;;14.50;89.70;;;;;;4827008;29;20054;-87
2021/12/20 11:47:39;;;;;;;2.67;0.85;;;14.60;97.70;;;;;;4827337;29;20046;-86
2021/12/20 11:50:39;;;;;;;2.03;0.73;;;14.80;86.40;;;;;;4780876;29;20426;-87
2021/12/20 11:53:14;;;;;;;1.35;0.70;;;14.80;68.70;;;;;;4826877;29;20065;-87
2021/12/20 11:55:50;;;;;;;1.70;0.90;;;14.80;77.70;;;;;;4843160;29;20068;-87
2021/12/20 11:58:30;;;;;;;0.90;0.50;;;14.90;75.70;;;;;;4811842;29;20405;-87
2021/12/20 12:01:03;;;;;;;0.70;0.45;;;14.90;67.40;;;;;;4826708;29;20517;-87
2021/12/20 12:03:34;;;;;;;0.63;0.40;;;15.00;81.80;;;;;;4826863;29;20493;-87
2021/12/20 12:06:10;;;;;;;1.08;0.93;;;14.50;81.80;;;;;;4811393;29;20054;-88
2021/12/20 12:08:54;;;;;;;2.03;0.93;;;14.90;67.20;;;;;;4827219;29;20091;-87
2021/12/20 12:11:25;;;;;;;1.45;0.40;;;14.90;68.70;;;;;;4827104;29;20568;-87
2021/12/20 12:14:07;;;;;;;0.63;0.63;;;14.90;82.00;;;;;;4811557;29;20069;-94
2021/12/20 12:17:02;;;;;;;1.75;0.70;;;15.00;63.50;;;;;;4812074;29;20077;-87
2021/12/20 12:20:03;;;;;;;1.70;0.65;;;15.20;63.30;;;;;;4812205;29;20050;-87
2021/12/20 12:22:37;;;;;;;0.45;0.45;;;15.30;58.10;;;;;;4779197;29;20065;-87
2021/12/20 12:25:08;;;;;;;0.40;0.40;;;15.30;65.90;;;;;;4826266;29;20042;-87
2021/12/20 12:27:35;;;;;;;1.67;0.40;;;15.30;72.00;;;;;;4826887;29;20058;-87
2021/12/20 12:30:14;;;;;;;0.43;0.30;;;15.40;73.40;;;;;;4810833;29;20057;-88
2021/12/20 12:32:48;;;;;;;1.15;0.63;;;15.40;58.60;;;;;;4826783;29;20054;-87
2021/12/20 12:35:43;;;;;;;0.80;0.30;;;14.60;62.00;;;;;;4826211;29;20054;-87
2021/12/20 12:38:18;;;;;;;1.70;0.40;;;15.30;65.70;;;;;;4810815;29;20050;-87
2021/12/20 12:40:49;;;;;;;1.60;0.52;;;15.30;70.00;;;;;;4826841;29;20133;-87
2021/12/20 12:43:16;;;;;;;0.95;0.57;;;15.10;70.90;;;;;;4810829;29;20046;-87
2021/12/20 12:45:52;;;;;;;0.30;0.20;;;15.00;75.20;;;;;;4825874;29;20106;-87
2021/12/20 12:48:49;;;;;;;0.40;0.27;;;15.00;62.60;;;;;;4810630;29;20102;-86
2021/12/20 12:51:18;;;;;;;1.25;0.40;;;14.80;60.30;;;;;;4811320;29;20295;-87
2021/12/20 12:53:48;;;;;;;0.20;0.13;;;14.70;68.80;;;;;;4810951;29;20117;-87
2021/12/20 12:56:29;;;;;;;0.40;0.32;;;14.60;74.90;;;;;;4810547;29;20089;-87
2021/12/20 12:59:14;;;;;;;0.52;0.47;;;14.50;60.20;;;;;;4826524;29;20106;-87
2021/12/20 13:01:57;;;;;;;2.17;0.30;;;14.30;58.20;;;;;;4810710;29;20050;-87
2021/12/20 13:04:46;;;;;;;0.75;0.30;;;14.00;58.50;;;;;;4810843;29;20386;-87
2021/12/20 13:07:17;;;;;;;0.50;0.40;;;14.00;58.00;;;;;;4810709;29;20054;-87
2021/12/20 13:09:45;;;;;;;0.75;0.40;;;13.90;68.60;;;;;;4811089;29;20060;-87
2021/12/20 13:12:20;;;;;;;2.03;0.70;;;13.90;78.50;;;;;;4825586;29;20176;-87
2021/12/20 13:15:04;;;;;;;0.60;0.40;;;13.70;74.50;;;;;;4827287;29;20520;-87
2021/12/20 13:17:36;;;;;;;0.47;0.45;;;13.60;64.70;;;;;;4825754;29;20054;-87
2021/12/20 13:20:12;;;;;;;0.30;0.30;;;12.80;73.10;;;;;;4825593;29;20390;-88
2021/12/20 13:22:40;;;;;;;0.30;0.30;;;13.50;70.80;;;;;;4826022;29;20093;-87
2021/12/20 13:25:06;;;;;;;1.10;0.60;;;13.40;77.70;;;;;;4810633;29;20050;-88
2021/12/20 13:27:32;;;;;;;1.27;0.93;;;13.30;78.50;;;;;;4826239;29;20069;-87
2021/12/20 13:29:58;;;;;;;1.10;0.73;;;13.30;78.40;;;;;;4826021;29;20056;-87
2021/12/20 13:32:24;;;;;;;1.85;0.57;;;13.30;78.40;;;;;;4825737;29;20046;-87
2021/12/20 13:34:50;;;;;;;1.38;0.55;;;13.50;78.90;;;;;;4810451;29;20049;-87
2021/12/20 13:37:26;;;;;;;;;;;;;;;;;;;;;